createdAt,value
2023-01-30T00:01:08.008Z,99095.44
2023-01-30T00:03:35.865Z,99098.91
2023-01-30T00:06:03.696Z,99108.59
2023-01-30T00:08:31.524Z,99106.81
2023-01-30T00:10:59.383Z,99119.84
2023-01-30T00:13:27.075Z,99122.25
2023-01-30T00:15:54.914Z,99119.50
2023-01-30T00:18:22.613Z,99118.44
2023-01-30T00:20:55.671Z,99120.03
2023-01-30T00:23:23.699Z,99121.59
2023-01-30T00:25:51.496Z,99126.75
2023-01-30T00:28:19.202Z,99123.16
2023-01-30T00:30:52.569Z,99122.81
2023-01-30T00:33:20.730Z,99119.00
2023-01-30T00:35:49.331Z,99123.22
2023-01-30T00:38:17.509Z,99118.56
2023-01-30T00:40:45.426Z,99120.13
2023-01-30T00:43:32.470Z,99118.31
2023-01-30T00:46:18.488Z,99129.69
2023-01-30T00:48:46.145Z,99133.03
2023-01-30T00:51:14.081Z,99143.34
2023-01-30T00:53:41.912Z,99139.75
2023-01-30T00:56:09.713Z,99138.81
2023-01-30T00:58:37.491Z,99136.81
2023-01-30T01:01:05.523Z,99136.91
2023-01-30T01:03:33.341Z,99130.91
2023-01-30T01:06:01.354Z,99132.50
2023-01-30T01:08:29.089Z,99121.00
2023-01-30T01:10:56.977Z,99132.38
2023-01-30T01:13:25.884Z,99133.22
2023-01-30T01:15:53.555Z,99140.28
2023-01-30T01:18:21.475Z,99152.50
2023-01-30T01:20:49.279Z,99151.41
2023-01-30T01:23:17.077Z,99145.31
2023-01-30T01:25:45.618Z,99152.25
2023-01-30T01:28:13.395Z,99150.69
2023-01-30T01:30:41.221Z,99143.16
2023-01-30T01:33:11.391Z,99146.63
2023-01-30T01:35:42.324Z,99158.84
2023-01-30T01:38:10.282Z,99146.19
2023-01-30T01:40:58.483Z,99151.59
2023-01-30T01:43:26.432Z,99146.41
2023-01-30T01:45:56.125Z,99162.19
2023-01-30T01:48:45.944Z,99167.47
2023-01-30T01:51:43.728Z,99170.03
2023-01-30T01:54:17.859Z,99174.44
2023-01-30T01:56:47.521Z,99176.34
2023-01-30T01:59:21.473Z,99178.25
2023-01-30T02:01:49.369Z,99186.25
2023-01-30T02:04:37.077Z,99188.06
2023-01-30T02:07:04.850Z,99178.00
2023-01-30T02:09:32.703Z,99190.63
2023-01-30T02:12:00.496Z,99184.88
2023-01-30T02:14:28.237Z,99183.66
2023-01-30T02:16:55.984Z,99205.78
2023-01-30T02:19:25.405Z,99211.38
2023-01-30T02:22:09.427Z,99214.94
2023-01-30T02:25:31.061Z,99225.66
2023-01-30T02:28:21.623Z,99221.00
2023-01-30T02:31:10.623Z,99229.22
2023-01-30T02:33:49.824Z,99218.81
2023-01-30T02:36:27.100Z,99218.28
2023-01-30T02:39:06.152Z,99213.50
2023-01-30T02:41:52.119Z,99210.56
2023-01-30T02:44:58.761Z,99221.03
2023-01-30T02:47:49.248Z,99217.56
2023-01-30T02:50:22.151Z,99225.50
2023-01-30T02:52:50.174Z,99234.66
2023-01-30T02:55:23.207Z,99230.44
2023-01-30T02:57:51.724Z,99236.31
2023-01-30T03:00:54.603Z,99231.69
2023-01-30T03:03:39.605Z,99230.38
2023-01-30T03:06:20.312Z,99234.47
2023-01-30T03:08:54.254Z,99228.19
2023-01-30T03:11:24.889Z,99235.53
2023-01-30T03:14:11.193Z,99231.09
2023-01-30T03:16:40.142Z,99232.28
2023-01-30T03:19:11.906Z,99242.31
2023-01-30T03:21:45.005Z,99241.47
2023-01-30T03:24:16.151Z,99252.97
2023-01-30T03:26:55.588Z,99247.59
2023-01-30T03:29:23.565Z,99240.69
2023-01-30T03:31:51.652Z,99249.56
2023-01-30T03:34:19.679Z,99245.56
2023-01-30T03:36:48.257Z,99244.22
2023-01-30T03:39:16.963Z,99251.78
2023-01-30T03:41:44.661Z,99247.34
2023-01-30T03:44:12.490Z,99253.19
2023-01-30T03:46:44.003Z,99246.44
2023-01-30T03:49:11.823Z,99243.88
2023-01-30T03:51:39.764Z,99245.81
2023-01-30T03:54:07.501Z,99249.75
2023-01-30T03:56:35.505Z,99245.91
2023-01-30T03:59:03.437Z,99235.88
2023-01-30T04:01:39.096Z,99248.84
2023-01-30T04:04:07.047Z,99241.75
2023-01-30T04:06:36.598Z,99245.50
2023-01-30T04:09:05.799Z,99253.03
2023-01-30T04:11:39.266Z,99258.91
2023-01-30T04:14:07.057Z,99260.59
2023-01-30T04:16:43.464Z,99267.06
2023-01-30T04:19:29.931Z,99254.94
2023-01-30T04:21:57.957Z,99264.00
2023-01-30T04:24:25.757Z,99258.72
2023-01-30T04:26:53.791Z,99263.03
2023-01-30T04:29:21.639Z,99253.69
2023-01-30T04:31:51.490Z,99268.59
2023-01-30T04:34:22.992Z,99264.72
2023-01-30T04:36:50.980Z,99268.81
2023-01-30T04:39:20.481Z,99264.59
2023-01-30T04:41:48.998Z,99274.34
2023-01-30T04:44:16.801Z,99265.19
2023-01-30T04:47:07.360Z,99264.09
2023-01-30T04:49:35.363Z,99263.13
2023-01-30T04:52:04.619Z,99261.19
2023-01-30T04:54:32.480Z,99270.66
2023-01-30T04:57:00.704Z,99270.53
2023-01-30T04:59:29.753Z,99256.94
2023-01-30T05:02:00.047Z,99263.91
2023-01-30T05:04:27.918Z,99261.25
2023-01-30T05:06:55.626Z,99258.34
2023-01-30T05:09:23.437Z,99253.47
2023-01-30T05:11:51.155Z,99251.66
2023-01-30T05:14:18.823Z,99255.97
2023-01-30T05:16:46.613Z,99256.69
2023-01-30T05:19:14.516Z,99259.81
2023-01-30T05:21:42.294Z,99264.97
2023-01-30T05:24:10.097Z,99260.09
2023-01-30T05:26:37.941Z,99272.69
2023-01-30T05:29:05.627Z,99272.44
2023-01-30T05:31:35.814Z,99261.34
2023-01-30T05:34:03.818Z,99273.34
2023-01-30T05:36:31.692Z,99269.72
2023-01-30T05:38:59.703Z,99254.94
2023-01-30T05:41:27.521Z,99268.47
2023-01-30T05:43:55.342Z,99256.22
2023-01-30T05:46:23.317Z,99260.16
2023-01-30T05:48:51.094Z,99252.47
2023-01-30T05:51:26.186Z,99250.78
2023-01-30T05:53:54.023Z,99250.25
2023-01-30T05:56:21.865Z,99242.81
2023-01-30T05:58:53.908Z,99245.59
2023-01-30T06:01:21.998Z,99245.63
2023-01-30T06:03:50.127Z,99248.69
2023-01-30T06:06:18.073Z,99238.53
2023-01-30T06:08:45.929Z,99227.97
2023-01-30T06:11:17.350Z,99244.25
2023-01-30T06:13:45.210Z,99239.78
2023-01-30T06:16:14.095Z,99249.16
2023-01-30T06:18:42.126Z,99245.25
2023-01-30T06:21:10.304Z,99238.56
2023-01-30T06:23:39.366Z,99251.53
2023-01-30T06:26:09.124Z,99252.22
2023-01-30T06:28:37.617Z,99253.94
2023-01-30T06:31:07.964Z,99248.22
2023-01-30T06:33:36.159Z,99260.22
2023-01-30T06:36:04.052Z,99258.81
2023-01-30T06:38:31.994Z,99251.31
2023-01-30T06:40:59.741Z,99247.50
2023-01-30T06:43:27.556Z,99258.97
2023-01-30T06:45:55.375Z,99247.50
2023-01-30T06:48:23.149Z,99263.00
2023-01-30T06:50:50.977Z,99253.53
2023-01-30T06:53:18.755Z,99253.25
2023-01-30T06:55:46.707Z,99241.38
2023-01-30T06:58:14.883Z,99254.03
2023-01-30T07:00:43.199Z,99248.19
2023-01-30T07:03:12.358Z,99249.47
2023-01-30T07:05:40.800Z,99249.88
2023-01-30T07:08:08.805Z,99259.50
2023-01-30T07:10:36.737Z,99256.13
2023-01-30T07:13:04.771Z,99261.72
2023-01-30T07:15:32.813Z,99257.13
2023-01-30T07:18:01.718Z,99260.75
2023-01-30T07:20:31.582Z,99263.25
2023-01-30T07:22:59.314Z,99262.28
2023-01-30T07:25:27.401Z,99260.03
2023-01-30T07:27:59.374Z,99252.66
2023-01-30T07:30:28.183Z,99260.31
2023-01-30T07:32:58.197Z,99262.84
2023-01-30T07:35:26.966Z,99270.09
2023-01-30T07:37:54.792Z,99262.69
2023-01-30T07:40:22.858Z,99259.78
2023-01-30T07:43:00.853Z,99264.09
2023-01-30T07:45:39.785Z,99268.00
2023-01-30T07:48:08.880Z,99277.22
2023-01-30T07:50:36.835Z,99277.34
2023-01-30T07:53:05.512Z,99277.22
2023-01-30T07:55:33.896Z,99271.53
2023-01-30T07:58:01.699Z,99278.63
2023-01-30T08:00:29.498Z,99271.66
2023-01-30T08:02:57.344Z,99270.41
2023-01-30T08:05:25.581Z,99272.66
2023-01-30T08:07:54.021Z,99278.53
2023-01-30T08:10:21.878Z,99274.34
2023-01-30T08:12:51.977Z,99279.50
2023-01-30T08:15:21.850Z,99281.31
2023-01-30T08:17:57.166Z,99294.25
2023-01-30T08:20:25.252Z,99290.09
2023-01-30T08:22:53.253Z,99303.63
2023-01-30T08:25:21.477Z,99301.25
2023-01-30T08:27:49.207Z,99308.22
2023-01-30T08:30:17.617Z,99310.88
2023-01-30T08:32:45.641Z,99315.63
2023-01-30T08:35:13.548Z,99325.94
2023-01-30T08:37:41.797Z,99330.53
2023-01-30T08:40:10.202Z,99336.53
2023-01-30T08:42:38.013Z,99349.09
2023-01-30T08:45:06.364Z,99346.72
2023-01-30T08:47:35.845Z,99354.22
2023-01-30T08:50:04.754Z,99349.91
2023-01-30T08:52:35.770Z,99337.63
2023-01-30T08:55:03.806Z,99354.22
2023-01-30T08:57:32.902Z,99346.13
2023-01-30T09:00:00.625Z,99359.72
2023-01-30T09:02:28.545Z,99347.28
2023-01-30T09:04:56.359Z,99351.47
2023-01-30T09:07:24.143Z,99357.22
2023-01-30T09:09:51.969Z,99359.84
2023-01-30T09:12:19.851Z,99362.78
2023-01-30T09:14:47.611Z,99361.38
2023-01-30T09:17:15.247Z,99377.44
2023-01-30T09:19:43.049Z,99365.28
2023-01-30T09:22:10.921Z,99375.16
2023-01-30T09:24:38.603Z,99377.25
2023-01-30T09:27:06.443Z,99377.25
2023-01-30T09:29:34.320Z,99393.41
2023-01-30T09:32:02.026Z,99385.88
2023-01-30T09:34:29.777Z,99395.31
2023-01-30T09:37:00.534Z,99400.19
2023-01-30T09:39:31.770Z,99398.63
2023-01-30T09:42:05.577Z,99399.88
2023-01-30T09:44:49.440Z,99409.72
2023-01-30T09:47:29.256Z,99418.78
2023-01-30T09:50:12.704Z,99419.75
2023-01-30T09:53:02.201Z,99429.66
2023-01-30T09:55:31.450Z,99439.81
2023-01-30T09:57:59.860Z,99441.00
2023-01-30T10:00:40.045Z,99438.75
2023-01-30T10:03:10.657Z,99458.41
2023-01-30T10:05:46.078Z,99454.34
2023-01-30T10:08:17.159Z,99450.84
2023-01-30T10:11:11.276Z,99455.66
2023-01-30T10:14:07.765Z,99456.91
2023-01-30T10:16:43.157Z,99465.25
2023-01-30T10:19:36.386Z,99466.47
2023-01-30T10:22:16.443Z,99482.56
2023-01-30T10:24:51.330Z,99476.56
2023-01-30T10:27:19.298Z,99486.59
2023-01-30T10:29:50.014Z,99491.88
2023-01-30T10:32:19.394Z,99499.69
2023-01-30T10:34:50.100Z,99506.91
2023-01-30T10:37:46.160Z,99510.53
2023-01-30T10:40:29.032Z,99518.59
2023-01-30T10:43:18.246Z,99521.38
2023-01-30T10:46:21.214Z,99513.69
2023-01-30T10:49:12.689Z,99516.69
2023-01-30T10:52:07.732Z,99526.44
2023-01-30T10:55:00.213Z,99530.06
2023-01-30T10:57:46.814Z,99538.97
2023-01-30T11:00:27.343Z,99544.50
2023-01-30T11:03:01.133Z,99550.06
2023-01-30T11:05:31.882Z,99555.22
2023-01-30T11:07:59.721Z,99563.28
2023-01-30T11:10:28.445Z,99561.72
2023-01-30T11:12:58.723Z,99565.44
2023-01-30T11:15:39.396Z,99571.56
2023-01-30T11:18:33.497Z,99574.97
2023-01-30T11:21:03.564Z,99576.03
2023-01-30T11:23:43.598Z,99585.75
2023-01-30T11:26:46.902Z,99597.19
2023-01-30T11:29:29.398Z,99597.31
2023-01-30T11:31:57.836Z,99597.69
2023-01-30T11:34:26.132Z,99600.94
2023-01-30T11:36:54.077Z,99605.38
2023-01-30T11:39:23.717Z,99601.06
2023-01-30T11:41:54.564Z,99607.91
2023-01-30T11:44:28.825Z,99612.94
2023-01-30T11:47:00.034Z,99621.84
2023-01-30T11:49:32.017Z,99625.34
2023-01-30T11:52:00.438Z,99642.81
2023-01-30T11:54:39.952Z,99635.72
2023-01-30T11:57:12.098Z,99644.50
2023-01-30T12:00:20.211Z,99649.91
2023-01-30T12:02:48.724Z,99639.53
2023-01-30T12:05:32.524Z,99652.06
2023-01-30T12:08:31.212Z,99662.63
2023-01-30T12:11:03.744Z,99659.41
2023-01-30T12:13:42.264Z,99659.41
2023-01-30T12:16:27.413Z,99662.88
2023-01-30T12:19:07.902Z,99672.38
2023-01-30T12:21:47.290Z,99674.06
2023-01-30T12:24:47.424Z,99677.34
2023-01-30T12:27:32.219Z,99686.13
2023-01-30T12:30:03.980Z,99684.91
2023-01-30T12:32:32.781Z,99684.91
2023-01-30T12:35:01.481Z,99684.06
2023-01-30T12:37:50.551Z,99695.59
2023-01-30T12:40:37.108Z,99695.84
2023-01-30T12:43:16.937Z,99695.13
2023-01-30T12:45:51.130Z,99704.63
2023-01-30T12:48:40.700Z,99707.03
2023-01-30T12:51:34.329Z,99714.72
2023-01-30T12:54:19.713Z,99717.25
2023-01-30T12:57:06.017Z,99726.88
2023-01-30T12:59:48.905Z,99719.69
2023-01-30T13:02:35.296Z,99728.81
2023-01-30T13:05:23.595Z,99728.56
2023-01-30T13:08:03.319Z,99722.22
2023-01-30T13:10:44.263Z,99729.28
2023-01-30T13:13:43.468Z,99717.09
2023-01-30T13:16:14.206Z,99727.03
2023-01-30T13:18:55.100Z,99726.56
2023-01-30T13:21:35.621Z,99740.44
2023-01-30T13:24:15.216Z,99736.41
2023-01-30T13:26:43.072Z,99739.59
2023-01-30T13:29:15.396Z,99745.13
2023-01-30T13:32:01.753Z,99739.16
2023-01-30T13:34:35.196Z,99741.94
2023-01-30T13:37:14.629Z,99741.97
2023-01-30T13:40:00.178Z,99746.63
2023-01-30T13:42:39.509Z,99756.97
2023-01-30T13:45:07.816Z,99765.31
2023-01-30T13:48:02.435Z,99762.56
2023-01-30T13:50:54.661Z,99769.94
2023-01-30T13:53:25.453Z,99764.88
2023-01-30T13:56:39.592Z,99771.75
2023-01-30T13:59:12.134Z,99769.22
2023-01-30T14:02:04.488Z,99764.03
2023-01-30T14:04:41.672Z,99772.06
2023-01-30T14:07:09.342Z,99776.41
2023-01-30T14:09:37.715Z,99779.66
2023-01-30T14:12:07.265Z,99783.91
2023-01-30T14:14:38.607Z,99797.19
2023-01-30T14:17:12.266Z,99786.00
2023-01-30T14:19:41.152Z,99786.84
2023-01-30T14:22:31.346Z,99787.91
2023-01-30T14:25:24.150Z,99795.84
2023-01-30T14:27:56.294Z,99801.84
2023-01-30T14:30:48.049Z,99794.56
2023-01-30T14:33:21.924Z,99803.13
2023-01-30T14:35:50.061Z,99800.91
2023-01-30T14:38:21.700Z,99797.53
2023-01-30T14:40:59.417Z,99808.09
2023-01-30T14:43:43.359Z,99807.69
2023-01-30T14:46:20.319Z,99812.63
2023-01-30T14:49:05.721Z,99815.06
2023-01-30T14:51:49.167Z,99813.66
2023-01-30T14:54:16.889Z,99816.63
2023-01-30T14:56:59.622Z,99819.66
2023-01-30T14:59:46.685Z,99832.56
2023-01-30T15:02:14.583Z,99821.75
2023-01-30T15:04:48.239Z,99816.97
2023-01-30T15:07:19.892Z,99824.69
2023-01-30T15:10:06.528Z,99824.38
2023-01-30T15:13:11.043Z,99825.22
2023-01-30T15:15:46.142Z,99839.59
2023-01-30T15:18:17.485Z,99836.09
2023-01-30T15:21:05.695Z,99831.88
2023-01-30T15:23:45.259Z,99835.81
2023-01-30T15:26:21.981Z,99837.63
2023-01-30T15:29:19.974Z,99839.53
2023-01-30T15:31:58.626Z,99841.75
2023-01-30T15:34:34.547Z,99839.44
2023-01-30T15:37:02.382Z,99848.00
2023-01-30T15:39:30.270Z,99843.16
2023-01-30T15:42:05.376Z,99847.28
2023-01-30T15:44:41.927Z,99848.88
2023-01-30T15:47:28.290Z,99846.22
2023-01-30T15:50:08.539Z,99840.50
2023-01-30T15:52:45.651Z,99838.63
2023-01-30T15:55:18.318Z,99843.25
2023-01-30T15:57:49.686Z,99842.84
2023-01-30T16:00:27.069Z,99847.88
2023-01-30T16:02:55.075Z,99843.16
2023-01-30T16:05:25.356Z,99836.19
2023-01-30T16:07:54.665Z,99839.03
2023-01-30T16:10:30.266Z,99845.16
2023-01-30T16:12:58.718Z,99844.94
2023-01-30T16:15:42.716Z,99848.72
2023-01-30T16:18:32.253Z,99860.91
2023-01-30T16:21:03.886Z,99863.44
2023-01-30T16:23:39.065Z,99861.63
2023-01-30T16:26:08.545Z,99870.72
2023-01-30T16:28:36.308Z,99874.81
2023-01-30T16:31:05.912Z,99861.63
2023-01-30T16:33:37.057Z,99862.38
2023-01-30T16:36:25.076Z,99865.88
2023-01-30T16:38:56.301Z,99861.84
2023-01-30T16:41:45.152Z,99877.16
2023-01-30T16:44:19.761Z,99865.66
2023-01-30T16:46:56.404Z,99878.31
2023-01-30T16:49:33.207Z,99879.56
2023-01-30T16:52:10.801Z,99877.66
2023-01-30T16:54:41.576Z,99887.38
2023-01-30T16:57:15.832Z,99887.19
2023-01-30T16:59:43.715Z,99881.47
2023-01-30T17:02:37.999Z,99885.47
2023-01-30T17:05:23.186Z,99886.91
2023-01-30T17:07:51.355Z,99885.44
2023-01-30T17:10:37.602Z,99889.03
2023-01-30T17:13:05.522Z,99888.41
2023-01-30T17:15:34.465Z,99889.03
2023-01-30T17:18:02.665Z,99893.78
2023-01-30T17:20:35.913Z,99889.34
2023-01-30T17:23:06.506Z,99892.53
2023-01-30T17:25:42.301Z,99889.38
2023-01-30T17:28:10.910Z,99895.28
2023-01-30T17:30:40.185Z,99893.50
2023-01-30T17:33:08.600Z,99891.91
2023-01-30T17:35:36.864Z,99898.59
2023-01-30T17:38:06.120Z,99886.97
2023-01-30T17:40:36.330Z,99894.06
2023-01-30T17:43:04.452Z,99902.59
2023-01-30T17:45:32.210Z,99901.75
2023-01-30T17:47:59.915Z,99906.09
2023-01-30T17:50:28.966Z,99907.03
2023-01-30T17:52:56.814Z,99911.91
2023-01-30T17:55:24.620Z,99906.16
2023-01-30T17:57:52.479Z,99899.72
2023-01-30T18:00:21.522Z,99904.91
2023-01-30T18:02:49.726Z,99902.75
2023-01-30T18:05:17.524Z,99906.66
2023-01-30T18:07:45.384Z,99901.69
2023-01-30T18:10:17.531Z,99912.41
2023-01-30T18:12:48.126Z,99910.94
2023-01-30T18:15:16.528Z,99907.75
2023-01-30T18:17:47.417Z,99904.75
2023-01-30T18:20:18.263Z,99908.25
2023-01-30T18:22:46.433Z,99907.91
2023-01-30T18:25:14.204Z,99909.13
2023-01-30T18:27:44.400Z,99899.00
2023-01-30T18:30:15.843Z,99901.63
2023-01-30T18:32:52.621Z,99908.81
2023-01-30T18:35:22.616Z,99914.06
2023-01-30T18:37:50.717Z,99918.50
2023-01-30T18:40:19.714Z,99907.22
2023-01-30T18:42:47.755Z,99916.91
2023-01-30T18:45:15.619Z,99923.03
2023-01-30T18:47:43.460Z,99925.88
2023-01-30T18:50:11.591Z,99920.59
2023-01-30T18:52:39.233Z,99919.56
2023-01-30T18:55:07.267Z,99904.84
2023-01-30T18:57:35.100Z,99919.88
2023-01-30T19:00:03.147Z,99917.25
2023-01-30T19:02:31.429Z,99918.09
2023-01-30T19:04:59.420Z,99919.25
2023-01-30T19:07:27.275Z,99916.72
2023-01-30T19:09:55.245Z,99924.72
2023-01-30T19:12:42.349Z,99919.44
2023-01-30T19:15:10.555Z,99922.09
2023-01-30T19:17:38.299Z,99929.03
2023-01-30T19:20:11.332Z,99927.25
2023-01-30T19:22:39.567Z,99929.78
2023-01-30T19:25:07.953Z,99943.63
2023-01-30T19:27:38.885Z,99936.19
2023-01-30T19:30:07.582Z,99932.50
2023-01-30T19:32:35.394Z,99935.03
2023-01-30T19:35:03.278Z,99927.97
2023-01-30T19:37:31.075Z,99934.63
2023-01-30T19:39:58.714Z,99933.41
2023-01-30T19:42:26.622Z,99934.56
2023-01-30T19:44:54.551Z,99933.34
2023-01-30T19:47:23.387Z,99931.56
2023-01-30T19:49:51.145Z,99929.94
2023-01-30T19:52:18.888Z,99937.09
2023-01-30T19:54:47.484Z,99934.56
2023-01-30T19:57:15.142Z,99942.59
2023-01-30T19:59:43.812Z,99934.78
2023-01-30T20:02:11.764Z,99941.09
2023-01-30T20:04:41.048Z,99938.09
2023-01-30T20:07:08.895Z,99937.03
2023-01-30T20:09:36.699Z,99945.59
2023-01-30T20:12:04.556Z,99946.00
2023-01-30T20:14:32.352Z,99947.13
2023-01-30T20:17:00.078Z,99941.00
2023-01-30T20:19:27.747Z,99942.69
2023-01-30T20:21:55.685Z,99947.53
2023-01-30T20:24:23.497Z,99944.44
2023-01-30T20:26:51.410Z,99949.88
2023-01-30T20:29:19.315Z,99941.13
2023-01-30T20:31:47.326Z,99936.25
2023-01-30T20:34:15.384Z,99937.09
2023-01-30T20:36:43.251Z,99942.47
2023-01-30T20:39:11.858Z,99937.50
2023-01-30T20:41:39.788Z,99941.22
2023-01-30T20:44:08.450Z,99931.94
2023-01-30T20:46:41.914Z,99938.44
2023-01-30T20:49:17.632Z,99943.97
2023-01-30T20:51:46.016Z,99943.59
2023-01-30T20:54:14.740Z,99944.84
2023-01-30T20:56:47.136Z,99943.41
2023-01-30T20:59:16.710Z,99948.97
2023-01-30T21:01:44.600Z,99953.56
2023-01-30T21:04:16.254Z,99962.66
2023-01-30T21:06:45.977Z,99961.06
2023-01-30T21:09:19.729Z,99963.13
2023-01-30T21:11:49.295Z,99957.22
2023-01-30T21:14:17.502Z,99956.63
2023-01-30T21:16:45.452Z,99960.47
2023-01-30T21:19:16.622Z,99965.16
2023-01-30T21:21:51.379Z,99972.28
2023-01-30T21:24:27.583Z,99976.03
2023-01-30T21:26:55.819Z,99971.22
2023-01-30T21:29:24.857Z,99969.78
2023-01-30T21:31:52.970Z,99970.94
2023-01-30T21:34:20.963Z,99974.75
2023-01-30T21:37:08.541Z,99967.13
2023-01-30T21:39:54.742Z,99975.19
2023-01-30T21:42:40.799Z,99973.59
2023-01-30T21:45:09.112Z,99961.66
2023-01-30T21:47:37.106Z,99963.53
2023-01-30T21:50:05.203Z,99964.59
2023-01-30T21:52:35.878Z,99960.38
2023-01-30T21:55:04.325Z,99966.28
2023-01-30T21:57:32.107Z,99962.91
2023-01-30T21:59:59.994Z,99963.75
2023-01-30T22:02:27.758Z,99967.31
2023-01-30T22:04:55.860Z,99967.13
2023-01-30T22:07:23.747Z,99959.25
2023-01-30T22:09:51.783Z,99958.06
2023-01-30T22:12:19.534Z,99958.84
2023-01-30T22:14:47.371Z,99964.66
2023-01-30T22:17:15.240Z,99961.81
2023-01-30T22:19:43.159Z,99952.13
2023-01-30T22:22:10.972Z,99955.59
2023-01-30T22:24:38.734Z,99967.72
2023-01-30T22:27:06.521Z,99966.78
2023-01-30T22:29:36.041Z,99964.81
2023-01-30T22:32:04.299Z,99960.94
2023-01-30T22:34:33.522Z,99961.63
2023-01-30T22:37:02.670Z,99960.50
2023-01-30T22:39:30.427Z,99959.47
2023-01-30T22:41:58.214Z,99953.00
2023-01-30T22:44:26.078Z,99953.50
2023-01-30T22:46:54.401Z,99956.53
2023-01-30T22:49:22.313Z,99953.53
2023-01-30T22:51:50.195Z,99959.19
2023-01-30T22:54:18.038Z,99957.03
2023-01-30T22:56:47.337Z,99958.44
2023-01-30T22:59:15.246Z,99953.84
2023-01-30T23:01:45.347Z,99964.97
2023-01-30T23:04:16.072Z,99959.50
2023-01-30T23:06:44.033Z,99955.94
2023-01-30T23:09:14.134Z,99961.94
2023-01-30T23:11:44.012Z,99962.69
2023-01-30T23:14:16.651Z,99959.03
2023-01-30T23:16:45.176Z,99961.56
2023-01-30T23:19:13.630Z,99964.03
2023-01-30T23:21:45.505Z,99954.50
2023-01-30T23:24:17.919Z,99962.25
2023-01-30T23:26:47.219Z,99954.34
2023-01-30T23:29:16.534Z,99954.34
2023-01-30T23:31:44.872Z,99953.31
2023-01-30T23:34:14.456Z,99956.69
2023-01-30T23:36:42.596Z,99954.78
2023-01-30T23:39:11.563Z,99957.34
2023-01-30T23:41:39.308Z,99955.44
2023-01-30T23:44:07.305Z,99947.44
2023-01-30T23:46:40.092Z,99949.97
2023-01-30T23:49:11.644Z,99950.66
2023-01-30T23:51:41.296Z,99948.13
2023-01-30T23:54:09.200Z,99952.34
2023-01-30T23:56:38.847Z,99955.94
2023-01-30T23:59:07.016Z,99965.44
